Time;durP1;ratioP1;P1;durP2;ratioP2;P2;SDS_P1;SDS_P2;PMS_P1;PMS_P2;Temp;Humidity;BMP_temperature;BMP_pressure;BME280_temperature;BME280_humidity;BME280_pressure;Samples;Min_cycle;Max_cycle;Signal;HPM_P1;HPM_P2
2022/09/15 16:11:44;;;;;;;;;;;19.30;99.90;;;;;;4590052;19;19935;-28
2022/09/15 16:13:17;;;;;;;;;;;19.30;99.90;;;;;;4594003;19;19923;-28
2022/09/15 16:14:48;;;;;;;;;;;19.40;99.90;;;;;;4592914;19;20265;-25
2022/09/15 16:16:20;;;;;;;;;;;19.40;99.90;;;;;;4593527;19;19948;-28
2022/09/15 16:17:52;;;;;;;;;;;19.40;99.90;;;;;;4593943;19;19925;-26
2022/09/15 16:19:23;;;;;;;;;;;19.40;99.90;;;;;;4594338;19;19926;-26
2022/09/15 16:20:54;;;;;;;;;;;19.40;99.90;;;;;;4593893;19;19923;-26
2022/09/15 16:22:26;;;;;;;;;;;19.40;99.90;;;;;;4593983;19;19938;-29
2022/09/15 16:23:57;;;;;;;;;;;19.40;99.90;;;;;;4593721;19;19922;-26
2022/09/15 16:25:38;;;;;;;;;;;19.40;99.90;;;;;;4594165;19;20233;-24
2022/09/15 16:27:11;;;;;;;;;;;19.30;99.90;;;;;;4592759;19;19923;-26
2022/09/15 16:28:42;;;;;;;;;;;19.40;99.90;;;;;;4592624;19;19929;-26
2022/09/15 16:30:13;;;;;;;;;;;19.40;99.90;;;;;;4592813;19;19919;-26
2022/09/15 16:31:44;;;;;;;;;;;19.40;99.90;;;;;;4592440;19;19927;-26
2022/09/15 16:33:16;;;;;;;;;;;19.40;99.90;;;;;;4593942;19;19918;-26
2022/09/15 16:34:50;;;;;;;;;;;19.50;99.90;;;;;;4593864;19;19923;-26
2022/09/15 16:36:20;;;;;;;;;;;19.50;99.90;;;;;;4592468;19;19982;-25
2022/09/15 16:37:52;;;;;;;;;;;19.50;99.90;;;;;;4591838;19;19934;-27
2022/09/15 16:39:23;;;;;;;;;;;19.50;99.90;;;;;;4592947;19;19915;-26
2022/09/15 16:40:54;;;;;;;;;;;19.40;99.90;;;;;;4593511;19;19907;-28
2022/09/15 16:42:25;;;;;;;;;;;19.50;99.90;;;;;;4590667;19;19923;-26
2022/09/15 16:43:56;;;;;;;;;;;19.50;99.90;;;;;;4593875;19;19919;-27
2022/09/15 16:45:29;;;;;;;;;;;18.80;99.90;;;;;;4593604;19;19930;-25
2022/09/15 16:47:00;;;;;;;;;;;18.00;99.90;;;;;;4592652;19;19915;-25
2022/09/15 16:48:33;;;;;;;;;;;17.80;99.90;;;;;;4594092;19;19944;-25
2022/09/15 16:50:04;;;;;;;;;;;17.70;99.90;;;;;;4591654;19;19922;-26
2022/09/15 16:51:35;;;;;;;;;;;17.60;99.90;;;;;;4592904;19;19929;-25
2022/09/15 16:53:13;;;;;;;;;;;17.60;99.90;;;;;;4594013;19;19933;-27
2022/09/15 16:54:44;;;;;;;;;;;17.60;99.90;;;;;;4594345;19;19979;-28
2022/09/15 16:56:16;;;;;;;;;;;17.60;99.90;;;;;;4591564;19;19926;-25
2022/09/15 16:57:48;;;;;;;;;;;17.60;99.90;;;;;;4592349;19;20252;-25
2022/09/15 16:59:34;;;;;;;;;;;17.60;99.90;;;;;;4593979;19;19925;-25
2022/09/15 17:01:05;;;;;;;;;;;17.60;99.90;;;;;;4592785;19;19915;-25
2022/09/15 17:02:37;;;;;;;;;;;17.60;99.90;;;;;;4590783;19;19911;-25
2022/09/15 17:04:10;;;;;;;;;;;17.50;99.90;;;;;;4591633;19;19915;-28
2022/09/15 17:05:44;;;;;;;;;;;17.50;99.90;;;;;;4592007;19;19919;-25
2022/09/15 17:07:15;;;;;;;;;;;17.50;99.90;;;;;;4592882;19;19923;-25
2022/09/15 17:08:47;;;;;;;;;;;17.50;99.90;;;;;;4592623;19;19923;-25
2022/09/15 17:10:17;;;;;;;;;;;17.50;99.90;;;;;;4591470;19;19918;-25
2022/09/15 17:11:49;;;;;;;;;;;17.50;99.90;;;;;;4591073;19;20345;-23
2022/09/15 17:13:20;;;;;;;;;;;17.50;99.90;;;;;;4591357;19;19925;-25
2022/09/15 17:14:51;;;;;;;;;;;17.50;99.90;;;;;;4592747;19;19930;-26
2022/09/15 17:16:22;;;;;;;;;;;17.40;99.90;;;;;;4593443;19;19919;-25
2022/09/15 17:17:55;;;;;;;;;;;17.50;99.90;;;;;;4593723;19;19938;-25
2022/09/15 17:19:26;;;;;;;;;;;17.40;99.90;;;;;;4592864;19;19934;-25
2022/09/15 17:20:57;;;;;;;;;;;17.40;99.90;;;;;;4591313;19;19914;-25
2022/09/15 17:22:28;;;;;;;;;;;17.40;99.90;;;;;;4593663;19;19922;-25
2022/09/15 17:23:59;;;;;;;;;;;17.30;99.90;;;;;;4592673;19;19934;-23
2022/09/15 17:25:40;;;;;;;;;;;17.30;99.90;;;;;;4593467;19;19919;-23
2022/09/15 17:27:11;;;;;;;;;;;17.30;99.90;;;;;;4590843;19;19945;-26
2022/09/15 17:28:42;;;;;;;;;;;17.30;99.90;;;;;;4592636;19;19951;-25
2022/09/15 17:30:13;;;;;;;;;;;17.30;99.90;;;;;;4592505;19;19927;-24
2022/09/15 17:31:44;;;;;;;;;;;17.20;99.90;;;;;;4591517;19;19923;-23
2022/09/15 17:33:16;;;;;;;;;;;17.20;99.90;;;;;;4592573;19;19915;-24
2022/09/15 17:34:47;;;;;;;;;;;17.20;99.90;;;;;;4591622;19;19930;-27
2022/09/15 17:36:18;;;;;;;;;;;17.20;99.90;;;;;;4593400;19;19989;-26
2022/09/15 17:37:49;;;;;;;;;;;17.10;99.90;;;;;;4591596;19;19922;-25
2022/09/15 17:39:20;;;;;;;;;;;17.20;99.90;;;;;;4591962;19;19915;-25
2022/09/15 17:40:51;;;;;;;;;;;17.10;99.90;;;;;;4591668;19;20245;-26
2022/09/15 17:42:23;;;;;;;;;;;17.10;99.90;;;;;;4592365;19;19919;-23
2022/09/15 17:43:54;;;;;;;;;;;17.10;99.90;;;;;;4592393;19;19924;-25
2022/09/15 17:45:26;;;;;;;;;;;17.10;99.90;;;;;;4592446;19;19915;-27
2022/09/15 17:46:57;;;;;;;;;;;17.10;99.90;;;;;;4591540;19;19923;-24
2022/09/15 17:48:28;;;;;;;;;;;17.00;99.90;;;;;;4591105;19;20391;-25
2022/09/15 17:49:59;;;;;;;;;;;17.00;99.90;;;;;;4592210;19;19922;-26
2022/09/15 17:51:30;;;;;;;;;;;17.00;99.90;;;;;;4591505;19;19915;-25
2022/09/15 17:53:01;;;;;;;;;;;17.00;99.90;;;;;;4592137;19;19914;-26
2022/09/15 17:54:32;;;;;;;;;;;17.00;99.90;;;;;;4591384;19;19923;-27
2022/09/15 17:56:03;;;;;;;;;;;17.00;99.90;;;;;;4591698;19;19915;-25
2022/09/15 17:57:34;;;;;;;;;;;16.90;99.90;;;;;;4589614;19;19918;-24
2022/09/15 17:59:05;;;;;;;;;;;16.90;99.90;;;;;;4590116;19;19919;-25
2022/09/15 18:00:37;;;;;;;;;;;16.90;99.90;;;;;;4589642;19;20568;-25
2022/09/15 18:02:11;;;;;;;;;;;16.90;99.90;;;;;;4590661;19;19915;-25
2022/09/15 18:03:42;;;;;;;;;;;16.90;99.90;;;;;;4590227;19;20347;-25
2022/09/15 18:05:22;;;;;;;;;;;16.90;99.90;;;;;;4589590;19;20251;-25
2022/09/15 18:06:53;;;;;;;;;;;16.80;99.90;;;;;;4589464;19;19914;-25
2022/09/15 18:08:25;;;;;;;;;;;16.80;99.90;;;;;;4590854;19;20261;-25
2022/09/15 18:09:56;;;;;;;;;;;16.80;99.90;;;;;;4592014;19;20242;-24
2022/09/15 18:11:28;;;;;;;;;;;16.80;99.90;;;;;;4590407;19;20005;-25
2022/09/15 18:12:59;;;;;;;;;;;16.80;99.90;;;;;;4591519;19;20277;-25
2022/09/15 18:14:30;;;;;;;;;;;16.70;99.90;;;;;;4591931;19;19911;-24
2022/09/15 18:16:05;;;;;;;;;;;16.60;99.90;;;;;;4591878;19;20001;-25
2022/09/15 18:17:36;;;;;;;;;;;16.60;99.90;;;;;;4592499;19;19924;-25
2022/09/15 18:19:07;;;;;;;;;;;16.60;99.90;;;;;;4591627;19;20344;-28
2022/09/15 18:20:38;;;;;;;;;;;16.60;99.90;;;;;;4591841;19;20260;-28
2022/09/15 18:22:10;;;;;;;;;;;16.60;99.90;;;;;;4591466;19;19915;-25
2022/09/15 18:23:41;;;;;;;;;;;16.50;99.90;;;;;;4590893;19;20297;-26
2022/09/15 18:27:05;;;;;;;;;;;16.50;99.90;;;;;;4591573;19;19922;-24
2022/09/15 18:28:36;;;;;;;;;;;16.40;99.90;;;;;;4589127;19;19945;-25
2022/09/15 18:30:07;;;;;;;;;;;16.40;99.90;;;;;;4588696;19;19915;-26
2022/09/15 18:31:39;;;;;;;;;;;16.40;99.90;;;;;;4587875;19;20269;-25
2022/09/15 18:33:14;;;;;;;;;;;16.30;99.90;;;;;;4588814;19;19923;-25
2022/09/15 18:34:46;;;;;;;;;;;16.30;99.90;;;;;;4588795;19;20325;-25
2022/09/15 18:36:17;;;;;;;;;;;16.30;99.90;;;;;;4588229;19;20002;-25
2022/09/15 18:37:56;;;;;;;;;;;16.20;99.90;;;;;;4588462;19;19935;-25
2022/09/15 18:39:28;;;;;;;;;;;16.20;99.90;;;;;;4588704;19;19915;-25
2022/09/15 18:41:00;;;;;;;;;;;16.20;99.90;;;;;;4588246;19;19929;-28
2022/09/15 18:42:31;;;;;;;;;;;16.20;99.90;;;;;;4588252;19;20383;-26
2022/09/15 18:44:02;;;;;;;;;;;16.20;99.90;;;;;;4588151;19;19937;-25
2022/09/15 18:45:33;;;;;;;;;;;16.20;99.90;;;;;;4588590;19;19926;-25
2022/09/15 18:47:04;;;;;;;;;;;16.20;99.90;;;;;;4587564;19;20580;-25
2022/09/15 18:48:36;;;;;;;;;;;16.10;99.90;;;;;;4587747;19;19927;-25
2022/09/15 18:50:08;;;;;;;;;;;16.10;99.90;;;;;;4588355;19;19919;-26
2022/09/15 18:51:39;;;;;;;;;;;16.10;99.90;;;;;;4586811;19;20436;-24
2022/09/15 18:53:26;;;;;;;;;;;16.10;99.90;;;;;;4588337;19;19919;-25
2022/09/15 18:54:58;;;;;;;;;;;16.00;99.90;;;;;;4586884;19;19950;-24
2022/09/15 18:56:29;;;;;;;;;;;16.00;99.90;;;;;;4586624;19;20340;-27
2022/09/15 18:58:01;;;;;;;;;;;16.00;99.90;;;;;;4588417;19;19915;-25
2022/09/15 18:59:32;;;;;;;;;;;16.00;99.90;;;;;;4588127;19;19938;-25
2022/09/15 19:01:04;;;;;;;;;;;16.00;99.90;;;;;;4589044;19;20038;-25
2022/09/15 19:02:35;;;;;;;;;;;15.90;99.90;;;;;;4589826;19;19946;-27
2022/09/15 19:04:06;;;;;;;;;;;15.90;99.90;;;;;;4590645;19;19923;-26
2022/09/15 19:05:37;;;;;;;;;;;15.90;99.90;;;;;;4590907;19;19919;-27
2022/09/15 19:07:09;;;;;;;;;;;15.90;99.90;;;;;;4589888;19;19922;-25
2022/09/15 19:08:40;;;;;;;;;;;15.80;99.90;;;;;;4588572;19;20351;-23
2022/09/15 19:10:12;;;;;;;;;;;15.90;99.90;;;;;;4588846;19;20623;-26
2022/09/15 19:11:44;;;;;;;;;;;15.80;99.90;;;;;;4587932;19;19999;-27
2022/09/15 19:13:15;;;;;;;;;;;15.80;99.90;;;;;;4586166;19;19982;-25
2022/09/15 19:14:47;;;;;;;;;;;15.80;99.90;;;;;;4589126;19;19962;-24
2022/09/15 19:16:19;;;;;;;;;;;15.80;99.90;;;;;;4589150;19;20355;-24
2022/09/15 19:17:50;;;;;;;;;;;15.70;99.90;;;;;;4587624;19;19919;-25
2022/09/15 19:19:22;;;;;;;;;;;15.70;99.90;;;;;;4586059;19;19991;-25
2022/09/15 19:20:53;;;;;;;;;;;15.70;99.90;;;;;;4586959;19;20448;-24
2022/09/15 19:22:26;;;;;;;;;;;15.70;99.90;;;;;;4590596;19;20511;-27
2022/09/15 19:23:57;;;;;;;;;;;15.70;99.90;;;;;;4589839;19;19915;-25
2022/09/15 19:25:32;;;;;;;;;;;15.60;99.90;;;;;;4589571;19;19926;-24
2022/09/15 19:27:09;;;;;;;;;;;15.70;99.90;;;;;;4588310;19;19925;-25
2022/09/15 19:28:40;;;;;;;;;;;15.60;99.90;;;;;;4590151;19;19914;-25
2022/09/15 19:30:11;;;;;;;;;;;15.60;99.90;;;;;;4590489;19;19930;-25
2022/09/15 19:31:42;;;;;;;;;;;15.60;99.90;;;;;;4588073;19;19986;-24
2022/09/15 19:33:14;;;;;;;;;;;15.60;99.90;;;;;;4588802;19;19952;-25
2022/09/15 19:34:45;;;;;;;;;;;15.60;99.90;;;;;;4589394;19;19911;-22
2022/09/15 19:36:16;;;;;;;;;;;15.60;99.90;;;;;;4589300;19;19922;-24
2022/09/15 19:37:48;;;;;;;;;;;15.60;99.90;;;;;;4589778;19;20270;-24
2022/09/15 19:39:19;;;;;;;;;;;15.60;99.90;;;;;;4590016;19;19926;-23
2022/09/15 19:40:51;;;;;;;;;;;15.60;99.90;;;;;;4589398;19;19922;-24
2022/09/15 19:42:22;;;;;;;;;;;15.60;99.90;;;;;;4589158;19;19931;-24
2022/09/15 19:43:54;;;;;;;;;;;15.60;99.90;;;;;;4590010;19;19926;-26
2022/09/15 19:45:31;;;;;;;;;;;15.50;99.90;;;;;;4589442;19;19919;-24
2022/09/15 19:47:03;;;;;;;;;;;15.50;99.90;;;;;;4587984;19;19939;-23
2022/09/15 19:48:35;;;;;;;;;;;15.50;99.90;;;;;;4589337;19;19926;-24
2022/09/15 19:50:11;;;;;;;;;;;15.50;99.90;;;;;;4589890;19;21049;-24
2022/09/15 19:51:42;;;;;;;;;;;15.50;99.90;;;;;;4588765;19;19974;-25
2022/09/15 19:53:14;;;;;;;;;;;15.40;99.90;;;;;;4588085;19;19922;-24
2022/09/15 19:54:47;;;;;;;;;;;15.40;99.90;;;;;;4589191;19;20339;-24
2022/09/15 19:56:21;;;;;;;;;;;15.40;99.90;;;;;;4588002;19;20415;-24
2022/09/15 19:57:52;;;;;;;;;;;15.40;99.90;;;;;;4589265;19;19957;-24
2022/09/15 19:59:23;;;;;;;;;;;15.40;99.90;;;;;;4589375;19;19938;-23
2022/09/15 20:00:54;;;;;;;;;;;15.40;99.90;;;;;;4589261;19;19929;-24
2022/09/15 20:02:26;;;;;;;;;;;15.40;99.90;;;;;;4588382;19;19986;-24
2022/09/15 20:03:57;;;;;;;;;;;15.40;99.90;;;;;;4588886;19;19930;-25
2022/09/15 20:05:29;;;;;;;;;;;15.40;99.90;;;;;;4588984;19;19979;-24
2022/09/15 20:07:01;;;;;;;;;;;15.40;99.90;;;;;;4588787;19;20388;-24
2022/09/15 20:08:40;;;;;;;;;;;15.40;99.90;;;;;;4588897;19;19927;-25
2022/09/15 20:10:11;;;;;;;;;;;15.40;99.90;;;;;;4589249;19;19919;-24
2022/09/15 20:11:42;;;;;;;;;;;15.40;99.90;;;;;;4587669;19;19979;-25
2022/09/15 20:13:13;;;;;;;;;;;15.40;99.90;;;;;;4589029;19;19956;-27
2022/09/15 20:14:45;;;;;;;;;;;15.40;99.90;;;;;;4589568;19;19926;-28
2022/09/15 20:16:17;;;;;;;;;;;15.30;99.90;;;;;;4587663;19;19919;-24
2022/09/15 20:17:50;;;;;;;;;;;15.40;99.90;;;;;;4587639;19;19949;-25
2022/09/15 20:19:23;;;;;;;;;;;15.30;99.90;;;;;;4588249;19;20359;-24
2022/09/15 20:20:54;;;;;;;;;;;15.30;99.90;;;;;;4588960;19;19919;-24
2022/09/15 20:22:25;;;;;;;;;;;15.30;99.90;;;;;;4588719;19;19918;-24
2022/09/15 20:23:56;;;;;;;;;;;15.40;99.90;;;;;;4588793;19;19919;-27
2022/09/15 20:25:28;;;;;;;;;;;15.30;99.90;;;;;;4588496;19;19915;-25
2022/09/15 20:26:59;;;;;;;;;;;15.30;99.90;;;;;;4589097;19;19919;-25
2022/09/15 20:28:30;;;;;;;;;;;15.30;99.90;;;;;;4587327;19;19923;-24
2022/09/15 20:30:04;;;;;;;;;;;15.30;99.90;;;;;;4587292;19;19996;-25
2022/09/15 20:31:35;;;;;;;;;;;15.30;99.90;;;;;;4587861;19;19922;-24
2022/09/15 20:33:07;;;;;;;;;;;15.20;99.90;;;;;;4587700;19;19919;-24
2022/09/15 20:34:38;;;;;;;;;;;15.30;99.90;;;;;;4588287;19;19911;-25
2022/09/15 20:36:19;;;;;;;;;;;15.30;99.90;;;;;;4587179;19;19957;-25
2022/09/15 20:37:50;;;;;;;;;;;15.30;99.90;;;;;;4587600;19;19915;-24
2022/09/15 20:39:23;;;;;;;;;;;15.30;99.90;;;;;;4588058;19;20335;-26
2022/09/15 20:40:54;;;;;;;;;;;15.30;99.90;;;;;;4587322;19;19919;-25
2022/09/15 20:42:25;;;;;;;;;;;15.40;99.90;;;;;;4587865;19;20324;-25
2022/09/15 20:43:56;;;;;;;;;;;15.40;99.90;;;;;;4589210;19;19987;-24
2022/09/15 20:45:28;;;;;;;;;;;15.50;99.90;;;;;;4588331;19;19923;-26
2022/09/15 20:46:59;;;;;;;;;;;15.50;99.90;;;;;;4588422;19;19919;-25
2022/09/15 20:48:31;;;;;;;;;;;15.50;99.90;;;;;;4590051;19;19939;-25
2022/09/15 20:50:11;;;;;;;;;;;15.50;99.90;;;;;;4593203;19;19934;-25
2022/09/15 20:51:44;;;;;;;;;;;15.60;99.90;;;;;;4591883;19;20267;-27
2022/09/15 20:53:15;;;;;;;;;;;15.60;99.90;;;;;;4592921;19;19915;-25
2022/09/15 20:54:45;;;;;;;;;;;15.60;99.90;;;;;;4592904;19;19911;-23
2022/09/15 20:56:19;;;;;;;;;;;15.60;99.90;;;;;;4592145;19;19925;-25
2022/09/15 20:57:51;;;;;;;;;;;15.60;99.90;;;;;;4592446;19;19918;-24
2022/09/15 20:59:22;;;;;;;;;;;15.60;99.90;;;;;;4592991;19;19910;-25
2022/09/15 21:01:08;;;;;;;;;;;15.70;99.90;;;;;;4592956;19;19915;-24
2022/09/15 21:02:39;;;;;;;;;;;15.70;99.90;;;;;;4592755;19;19922;-25
2022/09/15 21:04:11;;;;;;;;;;;15.70;99.90;;;;;;4592570;19;19911;-25
2022/09/15 21:05:42;;;;;;;;;;;15.70;99.90;;;;;;4593435;19;19982;-25
2022/09/15 21:07:13;;;;;;;;;;;15.70;99.90;;;;;;4591599;19;19919;-24
2022/09/15 21:08:46;;;;;;;;;;;15.70;99.90;;;;;;4592750;19;19925;-25
2022/09/15 21:10:18;;;;;;;;;;;15.70;99.90;;;;;;4592218;19;19922;-24
2022/09/15 21:11:49;;;;;;;;;;;15.80;99.90;;;;;;4591179;19;19925;-24
2022/09/15 21:13:23;;;;;;;;;;;15.80;99.90;;;;;;4592365;19;19918;-25
2022/09/15 21:14:55;;;;;;;;;;;15.70;99.90;;;;;;4591305;19;19919;-26
2022/09/15 21:16:27;;;;;;;;;;;15.80;99.90;;;;;;4591941;19;19914;-24
2022/09/15 21:18:00;;;;;;;;;;;15.80;99.90;;;;;;4591174;19;20395;-25
2022/09/15 21:19:31;;;;;;;;;;;15.80;99.90;;;;;;4592133;19;19919;-25
2022/09/15 21:21:28;;;;;;;;;;;15.80;99.90;;;;;;4592242;19;19946;-26
2022/09/15 21:23:00;;;;;;;;;;;15.80;99.90;;;;;;4591581;19;19927;-25
2022/09/15 21:24:31;;;;;;;;;;;15.80;99.90;;;;;;4592115;19;19923;-25
2022/09/15 21:26:03;;;;;;;;;;;15.80;99.90;;;;;;4592021;19;19991;-25
2022/09/15 21:27:34;;;;;;;;;;;15.80;99.90;;;;;;4592530;19;19930;-25
2022/09/15 21:29:05;;;;;;;;;;;15.80;99.90;;;;;;4591971;19;19933;-24
2022/09/15 21:30:36;;;;;;;;;;;15.80;99.90;;;;;;4591984;19;19919;-24
2022/09/15 21:32:07;;;;;;;;;;;15.80;99.90;;;;;;4589904;19;19935;-27
2022/09/15 21:33:38;;;;;;;;;;;15.80;99.90;;;;;;4591747;19;19931;-28
2022/09/15 21:35:10;;;;;;;;;;;15.80;99.90;;;;;;4592009;19;19933;-27
2022/09/15 21:36:41;;;;;;;;;;;15.80;99.90;;;;;;4590637;19;19919;-24
2022/09/15 21:38:12;;;;;;;;;;;15.80;99.90;;;;;;4591585;19;19928;-25
2022/09/15 21:39:43;;;;;;;;;;;15.80;99.90;;;;;;4591995;19;19911;-28
2022/09/15 21:41:16;;;;;;;;;;;15.90;99.90;;;;;;4591541;19;19931;-25
2022/09/15 21:42:48;;;;;;;;;;;15.90;99.90;;;;;;4591967;19;19919;-24
2022/09/15 21:44:19;;;;;;;;;;;15.90;99.90;;;;;;4591848;19;19919;-27
2022/09/15 21:45:55;;;;;;;;;;;15.90;99.90;;;;;;4591683;19;19952;-25
2022/09/15 21:47:27;;;;;;;;;;;15.90;99.90;;;;;;4591633;19;19927;-24
2022/09/15 21:48:58;;;;;;;;;;;15.90;99.90;;;;;;4591524;19;19915;-24
2022/09/15 21:50:29;;;;;;;;;;;15.90;99.90;;;;;;4590738;19;19915;-24
2022/09/15 21:52:01;;;;;;;;;;;15.90;99.90;;;;;;4589749;19;20643;-24
2022/09/15 21:53:33;;;;;;;;;;;15.90;99.90;;;;;;4591271;19;19938;-25
2022/09/15 21:55:05;;;;;;;;;;;15.90;99.90;;;;;;4591101;19;20388;-28
2022/09/15 21:56:36;;;;;;;;;;;15.90;99.90;;;;;;4591822;19;19922;-27
2022/09/15 21:58:07;;;;;;;;;;;16.10;99.90;;;;;;4591438;19;19918;-28
2022/09/15 21:59:40;;;;;;;;;;;16.50;99.90;;;;;;4591173;19;20353;-28
2022/09/15 22:01:18;;;;;;;;;;;16.70;99.90;;;;;;4591684;19;20265;-26
2022/09/15 22:02:50;;;;;;;;;;;16.90;99.90;;;;;;4590430;19;19911;-25
2022/09/15 22:04:21;;;;;;;;;;;17.10;99.90;;;;;;4590969;19;19919;-25
2022/09/15 22:05:52;;;;;;;;;;;17.30;99.90;;;;;;4592105;19;19926;-26
2022/09/15 22:07:23;;;;;;;;;;;17.50;99.90;;;;;;4591676;19;19915;-25
2022/09/15 22:08:59;;;;;;;;;;;17.60;99.90;;;;;;4591408;19;19926;-24
2022/09/15 22:10:30;;;;;;;;;;;17.70;99.90;;;;;;4590474;19;19923;-26
2022/09/15 22:12:01;;;;;;;;;;;17.80;99.90;;;;;;4590507;19;19986;-28
2022/09/15 22:13:33;;;;;;;;;;;17.90;99.90;;;;;;4591725;19;20326;-26
2022/09/15 22:15:05;;;;;;;;;;;17.90;99.90;;;;;;4591087;19;19926;-26
2022/09/15 22:16:36;;;;;;;;;;;18.00;99.90;;;;;;4591045;19;19927;-26
2022/09/15 22:18:08;;;;;;;;;;;18.10;99.90;;;;;;4591044;19;19938;-27
2022/09/15 22:19:39;;;;;;;;;;;18.10;99.90;;;;;;4591394;19;19959;-28
2022/09/15 22:21:11;;;;;;;;;;;18.20;99.90;;;;;;4590949;19;19926;-26
2022/09/15 22:22:43;;;;;;;;;;;18.20;99.90;;;;;;4590351;19;19919;-24
2022/09/15 22:24:14;;;;;;;;;;;18.30;99.90;;;;;;4590810;19;19947;-25
2022/09/15 22:25:45;;;;;;;;;;;18.30;99.90;;;;;;4591173;19;19911;-27
2022/09/15 22:27:16;;;;;;;;;;;18.30;99.90;;;;;;4589648;19;19915;-26
2022/09/15 22:28:47;;;;;;;;;;;18.30;99.90;;;;;;4590653;19;20670;-27
2022/09/15 22:30:18;;;;;;;;;;;18.40;99.90;;;;;;4589704;19;19944;-26
2022/09/15 22:31:50;;;;;;;;;;;18.40;99.90;;;;;;4589825;19;20364;-25
2022/09/15 22:33:20;;;;;;;;;;;18.50;99.90;;;;;;4590998;19;19911;-28
2022/09/15 22:34:51;;;;;;;;;;;18.50;99.90;;;;;;4589782;19;19919;-26
2022/09/15 22:36:24;;;;;;;;;;;18.50;99.90;;;;;;4590840;19;19952;-25
2022/09/15 22:37:55;;;;;;;;;;;18.50;99.90;;;;;;4590792;19;19927;-26
2022/09/15 22:39:26;;;;;;;;;;;18.60;99.90;;;;;;4590696;19;19974;-25
2022/09/15 22:41:01;;;;;;;;;;;18.60;99.90;;;;;;4589293;19;19934;-25
2022/09/15 22:42:32;;;;;;;;;;;18.60;99.90;;;;;;4590651;19;19962;-28
2022/09/15 22:44:04;;;;;;;;;;;18.60;99.90;;;;;;4590378;19;19934;-26
2022/09/15 22:45:35;;;;;;;;;;;18.70;99.90;;;;;;4590583;19;19911;-25
2022/09/15 22:47:06;;;;;;;;;;;18.70;99.90;;;;;;4589500;19;20325;-26
2022/09/15 22:48:37;;;;;;;;;;;18.70;99.90;;;;;;4589377;19;19922;-26
2022/09/15 22:50:08;;;;;;;;;;;18.70;99.90;;;;;;4589840;19;20266;-26
2022/09/15 22:51:39;;;;;;;;;;;18.80;99.90;;;;;;4588802;19;19919;-25
2022/09/15 22:53:11;;;;;;;;;;;18.80;99.90;;;;;;4589609;19;19923;-25
2022/09/15 22:54:43;;;;;;;;;;;18.80;99.90;;;;;;4590142;19;19914;-26
2022/09/15 22:56:20;;;;;;;;;;;18.80;99.90;;;;;;4588709;19;19989;-26
2022/09/15 22:57:51;;;;;;;;;;;18.80;99.90;;;;;;4588379;19;19911;-26
2022/09/15 22:59:22;;;;;;;;;;;18.80;99.90;;;;;;4589803;19;20328;-25
2022/09/15 23:01:00;;;;;;;;;;;18.80;99.90;;;;;;4586938;19;19922;-27
2022/09/15 23:02:31;;;;;;;;;;;18.80;99.90;;;;;;4588361;19;19911;-26
2022/09/15 23:04:02;;;;;;;;;;;18.80;99.90;;;;;;4589032;19;19923;-26
2022/09/15 23:05:33;;;;;;;;;;;18.80;99.90;;;;;;4589695;19;19911;-25
2022/09/15 23:07:04;;;;;;;;;;;18.80;99.90;;;;;;4589378;19;19938;-27
2022/09/15 23:08:35;;;;;;;;;;;18.80;99.90;;;;;;4587857;19;19918;-26
2022/09/15 23:10:06;;;;;;;;;;;18.80;99.90;;;;;;4589153;19;20333;-25
2022/09/15 23:11:40;;;;;;;;;;;18.80;99.90;;;;;;4586043;19;19946;-26
2022/09/15 23:13:12;;;;;;;;;;;18.80;99.90;;;;;;4589841;19;19938;-26
2022/09/15 23:14:43;;;;;;;;;;;18.90;99.90;;;;;;4587264;19;19919;-27
2022/09/15 23:16:14;;;;;;;;;;;18.80;99.90;;;;;;4587278;19;19948;-25
2022/09/15 23:17:46;;;;;;;;;;;18.90;99.90;;;;;;4587645;19;19919;-27
2022/09/15 23:19:17;;;;;;;;;;;18.90;99.90;;;;;;4587645;19;20333;-25
2022/09/15 23:20:57;;;;;;;;;;;18.90;99.90;;;;;;4587727;19;19947;-27
2022/09/15 23:22:29;;;;;;;;;;;18.90;99.90;;;;;;4587644;19;19944;-28
2022/09/15 23:24:00;;;;;;;;;;;18.90;99.90;;;;;;4587218;19;19916;-29
2022/09/15 23:25:31;;;;;;;;;;;18.90;99.90;;;;;;4587135;19;19919;-26
2022/09/15 23:27:03;;;;;;;;;;;18.90;99.90;;;;;;4587036;19;19914;-26
2022/09/15 23:28:34;;;;;;;;;;;18.90;99.90;;;;;;4587940;19;19927;-26
2022/09/15 23:30:05;;;;;;;;;;;19.00;99.90;;;;;;4586948;19;19940;-26
2022/09/15 23:31:36;;;;;;;;;;;18.90;99.90;;;;;;4586078;19;19919;-28
2022/09/15 23:33:07;;;;;;;;;;;18.90;99.90;;;;;;4586644;19;19925;-27
2022/09/15 23:34:38;;;;;;;;;;;18.90;99.90;;;;;;4587300;19;19918;-27
2022/09/15 23:36:10;;;;;;;;;;;18.90;99.90;;;;;;4586561;19;20261;-26
2022/09/15 23:37:41;;;;;;;;;;;19.00;99.90;;;;;;4587067;19;19926;-29
2022/09/15 23:39:12;;;;;;;;;;;19.00;99.90;;;;;;4586196;19;20348;-25
2022/09/15 23:40:43;;;;;;;;;;;19.00;99.90;;;;;;4587640;19;19940;-25
2022/09/15 23:42:14;;;;;;;;;;;19.00;99.90;;;;;;4587005;19;20349;-26
2022/09/15 23:43:45;;;;;;;;;;;19.00;99.90;;;;;;4587114;19;19927;-27
2022/09/15 23:45:16;;;;;;;;;;;19.00;99.90;;;;;;4587610;19;19948;-27
2022/09/15 23:46:47;;;;;;;;;;;19.00;99.90;;;;;;4587911;19;19911;-26
2022/09/15 23:48:19;;;;;;;;;;;19.00;99.90;;;;;;4588055;19;19919;-27
2022/09/15 23:49:50;;;;;;;;;;;19.00;99.90;;;;;;4588892;19;19978;-25
2022/09/15 23:51:21;;;;;;;;;;;19.00;99.90;;;;;;4588447;19;19922;-26
2022/09/15 23:52:52;;;;;;;;;;;19.00;99.90;;;;;;4588022;19;19922;-27
2022/09/15 23:54:23;;;;;;;;;;;19.00;99.90;;;;;;4589107;19;19926;-26
2022/09/15 23:55:54;;;;;;;;;;;19.10;99.90;;;;;;4589488;19;19919;-27
2022/09/15 23:57:27;;;;;;;;;;;19.00;99.90;;;;;;4589229;19;19925;-26
2022/09/15 23:58:58;;;;;;;;;;;19.00;99.90;;;;;;4588954;19;19929;-26
